YLHI

Details ICAO YLHI (LDH)
Name Lord Howe Island
Region Australia
Timezone Unknown (UTC+0.0)
Plans Departing 17
Arriving 25
Stats Elevation 16 ft / 5 m (AMSL)
Location -31.538405° 159.075986°
Runways 1
Magnetic Variation 14.053° E
Sunrise 2017-12-13 18:14:10 UTC / 2017-12-13 18:14:10 Local
Sunset 2017-12-14 08:24:59 UTC / 2017-12-14 08:24:59 Local
Advertisement - Login to hide

Runways

ID Width Length Bearing (true) Bearing (mag) Surface Threshold Offset Overrun Length
10 98 ft / 30 m 2,902 ft / 885 m 114.50° 100.45° Asphalt 0 ft / 0 m 194 ft / 59 m
28 98 ft / 30 m 2,902 ft / 885 m 294.50° 280.45° Asphalt 322 ft / 98 m 190 ft / 58 m

Map

Weather


0- 5 10 15 20 25 30 35+ Temperature / ° C

Clouds and Precipitation
Forecast for 2017-12-13 18:00 UTC. Updated 2 hours ago

Ground ~20,000 ft ~40,000 ft Winds

METAR

YLHI 131430Z AUTO 07006KT 9999 // SCT034 21/15 Q1015

TAF

TAF YLHI 131130Z 1312/1412 08005KT 9999 FEW020 BKN030 FM140000 06008KT 9999 SCT020 BKN030

Frequencies

Unicom 126.70 MHz LORD HOWE ISLAND MULT
Warning: Do not use this data for real-world aviation or navigation. No guarantee of current accuracy is given.